createdAt,value
2022-10-25T00:01:30.642Z,11.27
2022-10-25T00:04:32.561Z,11.25
2022-10-25T00:07:34.067Z,11.23
2022-10-25T00:10:36.848Z,11.22
2022-10-25T00:13:38.609Z,11.22
2022-10-25T00:16:40.176Z,11.20
2022-10-25T00:19:41.676Z,11.22
2022-10-25T00:22:43.543Z,11.19
2022-10-25T00:25:45.373Z,11.17
2022-10-25T00:28:47.181Z,11.17
2022-10-25T00:31:48.775Z,11.17
2022-10-25T00:34:50.376Z,11.16
2022-10-25T00:37:52.351Z,11.17
2022-10-25T00:40:53.895Z,11.17
2022-10-25T00:44:32.858Z,11.19
2022-10-25T00:47:43.401Z,11.19
2022-10-25T00:50:47.491Z,11.21
2022-10-25T00:53:50.116Z,11.22
2022-10-25T00:56:53.270Z,11.24
2022-10-25T00:59:54.951Z,11.25
2022-10-25T01:06:05.412Z,11.28
2022-10-25T01:09:10.487Z,11.32
2022-10-25T01:12:12.161Z,11.34
2022-10-25T01:15:13.841Z,11.36
2022-10-25T01:18:21.813Z,11.38
2022-10-25T01:21:50.165Z,11.40
2022-10-25T01:24:51.656Z,11.39
2022-10-25T01:28:11.777Z,11.42
2022-10-25T01:31:26.571Z,11.43
2022-10-25T01:34:43.568Z,11.43
2022-10-25T01:37:48.269Z,11.45
2022-10-25T01:41:10.981Z,11.46
2022-10-25T01:44:15.539Z,11.47
2022-10-25T01:47:33.114Z,11.45
2022-10-25T01:50:41.111Z,11.46
2022-10-25T01:53:50.715Z,11.46
2022-10-25T01:57:46.663Z,11.48
2022-10-25T02:01:08.976Z,11.49
2022-10-25T02:04:27.241Z,11.48
2022-10-25T02:07:38.680Z,11.50
2022-10-25T02:11:07.665Z,11.50
2022-10-25T02:14:40.123Z,11.51
2022-10-25T02:17:49.648Z,11.51
2022-10-25T02:20:53.765Z,11.51
2022-10-25T02:23:58.325Z,11.52
2022-10-25T02:27:02.696Z,11.53
2022-10-25T02:30:05.555Z,11.53
2022-10-25T02:33:07.162Z,11.53
2022-10-25T02:36:20.447Z,11.54
2022-10-25T02:39:27.636Z,11.55
2022-10-25T02:42:32.032Z,11.56
2022-10-25T02:45:33.570Z,11.55
2022-10-25T02:48:35.591Z,11.56
2022-10-25T02:51:37.134Z,11.57
2022-10-25T02:54:38.711Z,11.57
2022-10-25T02:57:40.249Z,11.58
2022-10-25T03:00:42.316Z,11.59
2022-10-25T03:03:44.357Z,11.60
2022-10-25T03:06:45.896Z,11.62
2022-10-25T03:09:47.408Z,11.60
2022-10-25T03:12:49.356Z,11.57
2022-10-25T03:15:51.152Z,11.57
2022-10-25T03:18:52.670Z,11.57
2022-10-25T03:21:54.210Z,11.57
2022-10-25T03:24:55.790Z,11.57
2022-10-25T03:28:00.483Z,11.57
2022-10-25T03:31:02.070Z,11.58
2022-10-25T03:34:03.560Z,11.57
2022-10-25T03:37:05.168Z,11.57
2022-10-25T03:40:07.318Z,11.57
2022-10-25T03:43:08.942Z,11.58
2022-10-25T03:46:10.583Z,11.58
2022-10-25T03:49:12.129Z,11.56
2022-10-25T03:52:13.762Z,11.55
2022-10-25T03:55:15.576Z,11.55
2022-10-25T03:58:17.447Z,11.56
2022-10-25T04:01:19.256Z,11.55
2022-10-25T04:04:21.120Z,11.53
2022-10-25T04:07:22.651Z,11.53
2022-10-25T04:10:25.302Z,11.53
2022-10-25T04:13:28.140Z,11.51
2022-10-25T04:16:29.694Z,11.51
2022-10-25T04:19:31.209Z,11.50
2022-10-25T04:22:33.345Z,11.50
2022-10-25T04:25:34.962Z,11.51
2022-10-25T04:28:36.525Z,11.51
2022-10-25T04:31:38.069Z,11.50
2022-10-25T04:34:39.796Z,11.52
2022-10-25T04:37:41.307Z,11.52
2022-10-25T04:40:42.816Z,11.53
2022-10-25T04:43:44.684Z,11.54
2022-10-25T04:46:48.655Z,11.58
2022-10-25T04:49:50.738Z,11.60
2022-10-25T04:52:52.248Z,11.60
2022-10-25T04:56:02.135Z,11.60
2022-10-25T04:59:03.693Z,11.59
2022-10-25T05:02:05.597Z,11.70
2022-10-25T05:05:07.409Z,11.82
2022-10-25T05:08:08.909Z,11.84
2022-10-25T05:11:12.335Z,11.81
2022-10-25T05:14:15.117Z,11.81
2022-10-25T05:17:16.699Z,11.79
2022-10-25T05:20:18.224Z,11.76
2022-10-25T05:23:20.032Z,11.76
2022-10-25T05:26:21.954Z,11.75
2022-10-25T05:29:23.510Z,11.76
2022-10-25T05:32:25.162Z,11.74
2022-10-25T05:35:26.756Z,11.73
2022-10-25T05:38:31.129Z,11.74
2022-10-25T05:41:37.147Z,11.73
2022-10-25T05:44:38.989Z,11.72
2022-10-25T05:47:40.529Z,11.72
2022-10-25T05:53:50.996Z,11.73
2022-10-25T05:56:52.553Z,11.74
2022-10-25T05:59:54.085Z,11.74
2022-10-25T06:02:55.656Z,11.76
2022-10-25T06:06:05.249Z,11.77
2022-10-25T06:09:08.668Z,11.76
2022-10-25T06:12:10.301Z,11.75
2022-10-25T06:15:11.789Z,11.75
2022-10-25T06:18:13.357Z,11.74
2022-10-25T06:21:21.764Z,11.75
2022-10-25T06:24:23.401Z,11.75
2022-10-25T06:27:27.800Z,11.74
2022-10-25T06:33:36.276Z,11.74
2022-10-25T06:36:37.784Z,11.75
2022-10-25T06:39:39.334Z,11.76
2022-10-25T06:42:40.917Z,11.77
2022-10-25T06:45:42.841Z,11.78
2022-10-25T06:48:44.377Z,11.79
2022-10-25T06:51:45.933Z,11.78
2022-10-25T06:54:47.482Z,11.77
2022-10-25T06:57:48.980Z,11.80
2022-10-25T07:00:50.561Z,11.88
2022-10-25T07:03:56.753Z,11.90
2022-10-25T07:06:59.293Z,11.91
2022-10-25T07:10:00.863Z,11.92
2022-10-25T07:13:02.418Z,11.92
2022-10-25T07:16:05.836Z,11.92
2022-10-25T07:19:07.490Z,11.92
2022-10-25T07:22:09.070Z,11.92
2022-10-25T07:25:10.589Z,11.94
2022-10-25T07:28:12.335Z,11.94
2022-10-25T07:31:22.728Z,12.01
2022-10-25T07:34:24.326Z,12.02
2022-10-25T07:37:25.848Z,12.04
2022-10-25T07:40:27.422Z,12.07
2022-10-25T07:43:29.375Z,12.08
2022-10-25T07:46:30.931Z,12.09
2022-10-25T07:49:32.491Z,12.10
2022-10-25T07:52:33.983Z,12.12
2022-10-25T07:55:35.568Z,12.14
2022-10-25T07:58:37.100Z,12.12
2022-10-25T08:01:38.705Z,12.13
2022-10-25T08:04:40.256Z,12.14
2022-10-25T08:07:41.765Z,12.14
2022-10-25T08:10:44.179Z,12.16
2022-10-25T08:13:49.013Z,12.19
2022-10-25T08:16:50.549Z,12.20
2022-10-25T08:19:52.115Z,12.24
2022-10-25T08:22:58.189Z,12.26
2022-10-25T08:26:00.987Z,12.27
2022-10-25T08:29:02.528Z,12.28
2022-10-25T08:32:04.355Z,12.29
2022-10-25T08:35:06.125Z,12.29
2022-10-25T08:38:07.680Z,12.27
2022-10-25T08:41:25.673Z,12.30
2022-10-25T08:44:38.010Z,12.31
2022-10-25T08:47:43.379Z,12.30
2022-10-25T08:50:49.631Z,12.30
2022-10-25T08:57:24.923Z,12.37
2022-10-25T09:00:36.088Z,12.42
2022-10-25T09:07:07.315Z,12.51
2022-10-25T09:10:11.572Z,12.54
2022-10-25T09:13:19.269Z,12.57
2022-10-25T09:16:32.828Z,12.62
2022-10-25T09:19:39.014Z,12.63
2022-10-25T09:22:49.396Z,12.65
2022-10-25T09:26:02.114Z,12.64
2022-10-25T09:29:24.448Z,12.64
2022-10-25T09:32:34.700Z,12.65
2022-10-25T09:35:53.788Z,12.65
2022-10-25T09:39:02.293Z,12.64
2022-10-25T09:42:07.773Z,12.62
2022-10-25T09:45:26.566Z,12.62
2022-10-25T09:48:37.252Z,12.61
2022-10-25T09:52:00.104Z,12.63
2022-10-25T09:55:23.161Z,12.66
2022-10-25T09:58:27.436Z,12.71
2022-10-25T10:01:29.562Z,12.80
2022-10-25T10:04:39.111Z,12.89
2022-10-25T10:07:41.389Z,12.93
2022-10-25T10:10:43.644Z,12.94
2022-10-25T10:13:50.796Z,12.94
2022-10-25T10:16:56.465Z,12.94
2022-10-25T10:20:17.444Z,12.97
2022-10-25T10:23:19.040Z,13.03
2022-10-25T10:26:23.406Z,13.06
2022-10-25T10:29:28.030Z,13.09
2022-10-25T10:32:34.052Z,13.11
2022-10-25T10:35:38.787Z,13.13
2022-10-25T10:38:40.397Z,13.18
2022-10-25T10:42:03.206Z,13.27
2022-10-25T10:45:12.224Z,13.33
2022-10-25T10:48:21.188Z,13.36
2022-10-25T10:51:45.520Z,13.41
2022-10-25T10:54:50.719Z,13.44
2022-10-25T10:57:54.389Z,13.46
2022-10-25T11:00:57.411Z,13.45
2022-10-25T11:04:00.932Z,13.46
2022-10-25T11:07:27.878Z,13.49
2022-10-25T11:10:32.814Z,13.61
2022-10-25T11:13:34.449Z,13.73
2022-10-25T11:17:09.652Z,13.90
2022-10-25T11:20:17.152Z,14.02
2022-10-25T11:23:24.530Z,14.06
2022-10-25T11:26:47.705Z,14.14
2022-10-25T11:30:31.756Z,14.23
2022-10-25T11:33:45.117Z,14.29
2022-10-25T11:37:08.500Z,14.37
2022-10-25T11:40:20.268Z,14.43
2022-10-25T11:43:39.810Z,14.45
2022-10-25T11:46:44.458Z,14.42
2022-10-25T11:50:23.528Z,14.34
2022-10-25T11:53:30.921Z,14.29
2022-10-25T11:56:47.768Z,14.21
2022-10-25T12:00:15.009Z,14.15
2022-10-25T12:03:25.781Z,14.21
2022-10-25T12:06:52.052Z,14.21
2022-10-25T12:10:05.590Z,14.20
2022-10-25T12:13:31.403Z,14.16
2022-10-25T12:16:36.427Z,14.17
2022-10-25T12:19:45.500Z,14.17
2022-10-25T12:22:50.591Z,14.21
2022-10-25T12:25:58.477Z,14.30
2022-10-25T12:29:04.299Z,14.37
2022-10-25T12:32:44.586Z,14.44
2022-10-25T12:35:54.266Z,14.53
2022-10-25T12:39:00.168Z,14.63
2022-10-25T12:42:06.126Z,14.74
2022-10-25T12:45:19.835Z,14.79
2022-10-25T12:49:08.416Z,14.82
2022-10-25T12:52:29.263Z,14.86
2022-10-25T12:55:53.168Z,14.90
2022-10-25T12:59:03.756Z,14.90
2022-10-25T13:02:27.196Z,14.91
2022-10-25T13:05:41.711Z,14.90
2022-10-25T13:08:44.251Z,14.88
2022-10-25T13:12:01.150Z,14.84
2022-10-25T13:15:03.748Z,14.78
2022-10-25T13:18:24.336Z,14.72
2022-10-25T13:21:53.740Z,14.66
2022-10-25T13:24:56.557Z,14.61
2022-10-25T13:28:16.943Z,14.60
2022-10-25T13:31:33.706Z,14.56
2022-10-25T13:34:36.268Z,14.51
2022-10-25T13:37:41.149Z,14.49
2022-10-25T13:40:42.727Z,14.48
2022-10-25T13:44:02.525Z,14.47
2022-10-25T13:47:04.479Z,14.53
2022-10-25T13:50:18.159Z,14.55
2022-10-25T13:53:22.432Z,14.55
2022-10-25T13:56:23.954Z,14.53
2022-10-25T13:59:54.403Z,14.50
2022-10-25T14:03:02.861Z,14.50
2022-10-25T14:06:09.661Z,14.53
2022-10-25T14:09:40.102Z,14.54
2022-10-25T14:12:45.592Z,14.56
2022-10-25T14:16:16.724Z,14.63
2022-10-25T14:19:21.127Z,14.70
2022-10-25T14:22:43.226Z,14.71
2022-10-25T14:25:55.648Z,14.65
2022-10-25T14:29:14.273Z,14.58
2022-10-25T14:32:21.924Z,14.49
2022-10-25T14:35:26.543Z,14.43
2022-10-25T14:38:28.275Z,14.40
2022-10-25T14:41:35.605Z,14.35
2022-10-25T14:44:50.778Z,14.30
2022-10-25T14:47:53.332Z,14.26
2022-10-25T14:50:57.572Z,14.24
2022-10-25T14:54:10.186Z,14.22
2022-10-25T14:57:11.916Z,14.17
2022-10-25T15:00:19.370Z,14.16
2022-10-25T15:03:21.507Z,14.14
2022-10-25T15:06:29.829Z,14.11
2022-10-25T15:09:47.156Z,14.08
2022-10-25T15:12:51.369Z,14.04
2022-10-25T15:15:53.430Z,14.01
2022-10-25T15:19:18.397Z,13.99
2022-10-25T15:22:20.681Z,13.96
2022-10-25T15:25:22.130Z,13.93
2022-10-25T15:28:23.739Z,13.91
2022-10-25T15:31:30.295Z,13.89
2022-10-25T15:34:32.892Z,13.84
2022-10-25T15:37:34.974Z,13.80
2022-10-25T15:40:38.342Z,13.76
2022-10-25T15:43:39.951Z,13.73
2022-10-25T15:46:41.661Z,13.70
2022-10-25T15:49:43.231Z,13.67
2022-10-25T15:52:45.452Z,13.66
2022-10-25T15:55:48.644Z,13.63
2022-10-25T15:58:51.312Z,13.60
2022-10-25T16:01:55.180Z,13.58
2022-10-25T16:04:56.853Z,13.54
2022-10-25T16:07:58.512Z,13.51
2022-10-25T16:11:00.285Z,13.49
2022-10-25T16:14:03.929Z,13.44
2022-10-25T16:17:05.608Z,13.39
2022-10-25T16:20:36.327Z,13.33
2022-10-25T16:23:37.992Z,13.25
2022-10-25T16:26:43.071Z,13.21
2022-10-25T16:29:44.584Z,13.18
2022-10-25T16:32:46.611Z,13.15
2022-10-25T16:35:48.401Z,13.13
2022-10-25T16:38:49.944Z,13.09
2022-10-25T16:41:52.615Z,13.08
2022-10-25T16:44:54.132Z,13.04
2022-10-25T16:47:57.497Z,13.05
2022-10-25T16:50:59.101Z,13.04
2022-10-25T16:54:01.347Z,13.04
2022-10-25T16:57:02.901Z,13.04
2022-10-25T17:00:05.107Z,13.05
2022-10-25T17:03:06.821Z,13.05
2022-10-25T17:06:22.255Z,13.06
2022-10-25T17:09:29.844Z,13.03
2022-10-25T17:12:31.419Z,13.03
2022-10-25T17:15:33.013Z,13.04
2022-10-25T17:18:35.617Z,13.04
2022-10-25T17:21:37.447Z,13.04
2022-10-25T17:24:39.041Z,13.03
2022-10-25T17:27:45.284Z,13.00
2022-10-25T17:30:47.285Z,12.96
2022-10-25T17:33:48.845Z,12.94
2022-10-25T17:39:58.590Z,12.91
2022-10-25T17:43:00.121Z,12.90
2022-10-25T17:46:08.253Z,12.88
2022-10-25T17:49:09.802Z,12.83
2022-10-25T17:52:11.368Z,12.79
2022-10-25T17:55:12.971Z,12.75
2022-10-25T17:58:14.528Z,12.72
2022-10-25T18:01:19.037Z,12.69
2022-10-25T18:04:20.840Z,12.65
2022-10-25T18:07:22.372Z,12.60
2022-10-25T18:10:23.944Z,12.58
2022-10-25T18:13:27.047Z,12.52
2022-10-25T18:16:30.943Z,12.47
2022-10-25T18:19:32.895Z,12.43
2022-10-25T18:22:34.434Z,12.40
2022-10-25T18:25:36.551Z,12.38
2022-10-25T18:28:38.337Z,12.35
2022-10-25T18:31:40.135Z,12.33
2022-10-25T18:34:41.678Z,12.30
2022-10-25T18:37:43.213Z,12.29
2022-10-25T18:40:44.739Z,12.28
2022-10-25T18:43:47.087Z,12.27
2022-10-25T18:46:48.672Z,12.24
2022-10-25T18:49:50.208Z,12.26
2022-10-25T18:52:51.780Z,12.23
2022-10-25T18:55:53.362Z,12.24
2022-10-25T18:58:56.788Z,12.24
2022-10-25T19:01:58.539Z,12.22
2022-10-25T19:05:00.407Z,12.20
2022-10-25T19:08:02.007Z,12.18
2022-10-25T19:11:12.146Z,12.17
2022-10-25T19:14:13.724Z,12.16
2022-10-25T19:17:15.251Z,12.14
2022-10-25T19:20:16.897Z,12.13
2022-10-25T19:23:18.767Z,12.12
2022-10-25T19:26:22.758Z,12.08
2022-10-25T19:29:24.354Z,12.08
2022-10-25T19:32:25.994Z,12.07
2022-10-25T19:35:27.560Z,12.07
2022-10-25T19:38:29.177Z,12.08
2022-10-25T19:41:30.888Z,12.08
2022-10-25T19:44:32.434Z,12.06
2022-10-25T19:47:35.804Z,12.05
2022-10-25T19:50:38.790Z,12.02
2022-10-25T19:53:40.664Z,12.00
2022-10-25T19:56:42.232Z,11.99
2022-10-25T19:59:43.883Z,11.99
2022-10-25T20:02:45.412Z,11.97
2022-10-25T20:05:46.937Z,11.96
2022-10-25T20:08:48.772Z,11.92
2022-10-25T20:11:50.325Z,11.91
2022-10-25T20:14:51.896Z,11.89
2022-10-25T20:17:53.417Z,11.87
2022-10-25T20:21:04.806Z,11.84
2022-10-25T20:24:09.307Z,11.81
2022-10-25T20:27:10.850Z,11.78
2022-10-25T20:30:12.434Z,11.73
2022-10-25T20:33:14.073Z,11.69
2022-10-25T20:36:15.937Z,11.66
2022-10-25T20:39:17.713Z,11.61
2022-10-25T20:42:19.525Z,11.57
2022-10-25T20:45:21.063Z,11.55
2022-10-25T20:48:22.568Z,11.51
2022-10-25T20:51:24.200Z,11.47
2022-10-25T20:54:25.750Z,11.44
2022-10-25T20:57:27.288Z,11.41
2022-10-25T21:00:28.929Z,11.36
2022-10-25T21:03:31.644Z,11.33
2022-10-25T21:06:33.157Z,11.27
2022-10-25T21:09:34.696Z,11.22
2022-10-25T21:12:36.208Z,11.17
2022-10-25T21:15:37.855Z,11.13
2022-10-25T21:18:40.112Z,11.10
2022-10-25T21:21:41.937Z,11.06
2022-10-25T21:24:43.437Z,11.08
2022-10-25T21:27:45.185Z,11.37
2022-10-25T21:30:47.012Z,11.45
2022-10-25T21:33:50.224Z,11.46
2022-10-25T21:36:53.234Z,11.45
2022-10-25T21:39:54.781Z,11.45
2022-10-25T21:42:57.710Z,11.41
2022-10-25T21:45:59.260Z,11.39
2022-10-25T21:49:00.875Z,11.27
2022-10-25T21:52:02.397Z,11.12
2022-10-25T21:55:04.266Z,11.05
2022-10-25T21:58:05.792Z,11.00
2022-10-25T22:01:15.934Z,10.99
2022-10-25T22:04:17.587Z,10.98
2022-10-25T22:07:19.120Z,10.98
2022-10-25T22:10:20.616Z,10.96
2022-10-25T22:13:22.141Z,10.91
2022-10-25T22:16:24.549Z,11.00
2022-10-25T22:19:26.107Z,10.94
2022-10-25T22:22:27.736Z,10.90
2022-10-25T22:25:29.237Z,10.86
2022-10-25T22:28:33.308Z,10.80
2022-10-25T22:31:36.993Z,10.73
2022-10-25T22:34:38.518Z,10.66
2022-10-25T22:37:40.096Z,10.59
2022-10-25T22:40:41.776Z,10.53
2022-10-25T22:43:44.824Z,10.47
2022-10-25T22:46:46.380Z,10.43
2022-10-25T22:49:47.934Z,10.37
2022-10-25T22:52:49.492Z,10.29
2022-10-25T22:56:00.522Z,10.22
2022-10-25T22:59:04.495Z,10.15
2022-10-25T23:02:06.053Z,10.07
2022-10-25T23:05:08.042Z,10.01
2022-10-25T23:08:09.592Z,9.93
2022-10-25T23:11:20.245Z,9.89
2022-10-25T23:14:21.807Z,9.82
2022-10-25T23:17:23.345Z,9.76
2022-10-25T23:20:24.856Z,9.70
2022-10-25T23:23:28.432Z,9.65
2022-10-25T23:26:32.487Z,9.61
2022-10-25T23:29:34.085Z,9.55
2022-10-25T23:32:35.661Z,9.51
2022-10-25T23:35:38.761Z,9.47
2022-10-25T23:38:40.351Z,9.42
2022-10-25T23:41:41.945Z,9.36
2022-10-25T23:44:43.460Z,9.29
2022-10-25T23:47:44.989Z,9.25
2022-10-25T23:50:46.649Z,9.23
2022-10-25T23:53:48.833Z,9.16
2022-10-25T23:56:50.404Z,9.11
2022-10-25T23:59:51.946Z,9.06
